createdAt,value
2023-02-11T00:02:55.001Z,4.00
2023-02-11T00:07:57.176Z,4.10
2023-02-11T00:12:59.197Z,4.30
2023-02-11T00:18:01.182Z,4.30
2023-02-11T00:23:03.200Z,4.40
2023-02-11T00:28:05.255Z,4.50
2023-02-11T00:33:07.349Z,4.60
2023-02-11T00:38:09.395Z,4.50
2023-02-11T00:43:12.635Z,4.70
2023-02-11T00:48:14.657Z,4.80
2023-02-11T00:53:16.659Z,4.90
2023-02-11T00:58:18.764Z,4.80
2023-02-11T01:03:20.843Z,5.20
2023-02-11T01:08:23.091Z,5.00
2023-02-11T01:13:26.081Z,5.00
2023-02-11T01:18:28.940Z,5.00
2023-02-11T01:23:31.069Z,4.90
2023-02-11T01:28:33.289Z,4.90
2023-02-11T01:33:35.460Z,4.90
2023-02-11T01:38:37.935Z,5.10
2023-02-11T01:43:48.033Z,5.10
2023-02-11T01:48:55.468Z,5.30
2023-02-11T01:54:16.596Z,5.40
2023-02-11T01:59:24.369Z,5.30
2023-02-11T02:04:31.540Z,5.40
2023-02-11T02:09:37.927Z,5.50
2023-02-11T02:14:40.787Z,5.70
2023-02-11T02:20:01.710Z,5.70
2023-02-11T02:25:12.826Z,5.70
2023-02-11T02:30:33.448Z,5.90
2023-02-11T02:35:49.795Z,5.70
2023-02-11T02:40:58.196Z,5.70
2023-02-11T02:46:29.611Z,5.90
2023-02-11T02:51:40.545Z,5.70
2023-02-11T02:56:48.827Z,5.90
2023-02-11T03:01:57.202Z,5.90
2023-02-11T03:07:04.052Z,5.90
2023-02-11T03:12:07.258Z,5.90
2023-02-11T03:17:10.244Z,5.90
2023-02-11T03:22:17.488Z,5.90
2023-02-11T03:27:32.501Z,6.10
2023-02-11T03:32:39.285Z,5.90
2023-02-11T03:37:56.621Z,5.90
2023-02-11T03:42:58.604Z,5.90
2023-02-11T03:48:03.003Z,6.00
2023-02-11T03:53:05.826Z,6.00
2023-02-11T03:58:08.325Z,6.00
2023-02-11T04:03:10.457Z,6.10
2023-02-11T04:08:12.541Z,6.10
2023-02-11T04:13:15.133Z,6.10
2023-02-11T04:18:17.507Z,6.20
2023-02-11T04:23:19.547Z,6.30
2023-02-11T04:28:21.796Z,6.40
2023-02-11T04:33:23.950Z,6.40
2023-02-11T04:38:26.164Z,6.50
2023-02-11T04:43:28.197Z,6.70
2023-02-11T04:48:30.303Z,6.60
2023-02-11T04:53:32.414Z,6.50
2023-02-11T04:58:34.407Z,6.70
2023-02-11T05:03:37.036Z,6.40
2023-02-11T05:08:39.587Z,6.30
2023-02-11T05:18:44.766Z,5.90
2023-02-11T05:23:46.932Z,5.90
2023-02-11T05:28:49.112Z,5.70
2023-02-11T05:33:51.188Z,5.90
2023-02-11T05:38:53.130Z,5.60
2023-02-11T05:43:55.092Z,5.50
2023-02-11T05:48:57.147Z,5.40
2023-02-11T05:53:59.108Z,5.40
2023-02-11T05:59:01.242Z,5.30
2023-02-11T06:04:03.274Z,5.30
2023-02-11T06:09:05.338Z,5.30
2023-02-11T06:14:07.411Z,5.60
2023-02-11T06:19:09.455Z,5.40
2023-02-11T06:24:12.303Z,5.40
2023-02-11T06:29:14.400Z,5.40
2023-02-11T06:34:16.429Z,5.60
2023-02-11T06:39:18.486Z,5.40
2023-02-11T06:44:20.857Z,5.40
2023-02-11T06:49:23.008Z,5.50
2023-02-11T06:54:25.050Z,5.50
2023-02-11T06:59:27.064Z,5.40
2023-02-11T07:04:29.095Z,5.60
2023-02-11T07:09:31.099Z,5.60
2023-02-11T07:14:33.159Z,5.40
2023-02-11T07:19:35.167Z,5.60
2023-02-11T07:24:37.378Z,5.40
2023-02-11T07:29:39.554Z,5.50
2023-02-11T07:34:41.927Z,5.70
2023-02-11T07:39:44.193Z,5.50
2023-02-11T07:44:48.657Z,5.90
2023-02-11T07:49:54.658Z,5.60
2023-02-11T07:54:58.451Z,5.60
2023-02-11T08:00:00.452Z,5.90
2023-02-11T08:05:02.482Z,5.80
2023-02-11T08:15:07.234Z,6.10
2023-02-11T08:20:09.441Z,6.20
2023-02-11T08:25:11.460Z,6.50
2023-02-11T08:30:14.337Z,6.50
2023-02-11T08:35:16.419Z,6.50
2023-02-11T08:40:18.681Z,6.70
2023-02-11T08:45:20.669Z,6.80
2023-02-11T08:50:22.723Z,6.80
2023-02-11T08:55:24.749Z,6.80
2023-02-11T09:00:26.789Z,6.90
2023-02-11T09:05:28.838Z,6.90
2023-02-11T09:10:30.838Z,7.00
2023-02-11T09:15:33.269Z,7.50
2023-02-11T09:20:35.296Z,7.40
2023-02-11T09:25:39.464Z,7.50
2023-02-11T09:30:41.605Z,7.70
2023-02-11T09:35:43.955Z,7.90
2023-02-11T09:40:46.051Z,8.20
2023-02-11T09:45:49.641Z,8.50
2023-02-11T09:50:54.227Z,8.50
2023-02-11T09:56:00.681Z,8.70
2023-02-11T10:01:05.756Z,8.80
2023-02-11T10:06:13.161Z,9.00
2023-02-11T10:11:31.616Z,9.00
2023-02-11T10:16:57.554Z,9.20
2023-02-11T10:21:59.606Z,9.20
2023-02-11T10:27:06.370Z,9.30
2023-02-11T10:32:16.207Z,9.40
2023-02-11T10:37:18.321Z,9.40
2023-02-11T10:42:20.390Z,9.80
2023-02-11T10:47:23.826Z,9.90
2023-02-11T10:52:37.519Z,10.10
2023-02-11T10:57:44.490Z,10.20
2023-02-11T11:02:52.220Z,10.30
2023-02-11T11:07:56.485Z,10.50
2023-02-11T11:12:58.554Z,10.60
2023-02-11T11:18:21.370Z,10.90
2023-02-11T11:23:25.183Z,11.00
2023-02-11T11:28:29.287Z,11.30
2023-02-11T11:33:33.812Z,11.50
2023-02-11T11:38:37.934Z,11.60
2023-02-11T11:43:40.335Z,11.70
2023-02-11T11:48:46.278Z,12.10
2023-02-11T11:53:53.379Z,12.40
2023-02-11T11:58:56.044Z,12.80
2023-02-11T12:04:16.765Z,13.00
2023-02-11T12:09:24.903Z,13.20
2023-02-11T12:14:45.737Z,13.60
2023-02-11T12:20:00.035Z,13.70
2023-02-11T12:25:05.095Z,13.80
2023-02-11T12:30:21.913Z,13.90
2023-02-11T12:35:42.668Z,14.10
2023-02-11T12:41:03.556Z,14.10
2023-02-11T12:46:13.569Z,14.20
2023-02-11T12:51:34.123Z,14.00
2023-02-11T12:57:02.024Z,14.20
2023-02-11T13:02:06.643Z,14.10
2023-02-11T13:07:15.109Z,14.00
2023-02-11T13:12:35.713Z,14.00
2023-02-11T13:17:41.324Z,14.00
2023-02-11T13:22:52.897Z,13.90
2023-02-11T13:28:03.639Z,13.80
2023-02-11T13:33:16.293Z,13.70
2023-02-11T13:38:23.123Z,13.70
2023-02-11T13:43:28.346Z,13.50
2023-02-11T13:48:30.901Z,13.20
2023-02-11T13:53:47.283Z,13.30
2023-02-11T13:58:50.434Z,13.10
2023-02-11T14:04:29.762Z,13.00
2023-02-11T14:09:39.114Z,12.80
2023-02-11T14:15:08.056Z,12.60
2023-02-11T14:20:28.902Z,12.50
2023-02-11T14:25:31.013Z,12.50
2023-02-11T14:30:45.869Z,12.40
2023-02-11T14:35:53.906Z,11.90
2023-02-11T14:41:00.124Z,12.00
2023-02-11T14:46:03.025Z,12.10
2023-02-11T14:51:10.518Z,11.90
2023-02-11T14:56:20.244Z,12.00
2023-02-11T15:01:26.773Z,11.90
2023-02-11T15:06:33.042Z,12.00
2023-02-11T15:11:39.390Z,11.90
2023-02-11T15:16:42.809Z,11.90
2023-02-11T15:21:45.010Z,11.90
2023-02-11T15:27:00.515Z,11.90
2023-02-11T15:32:04.670Z,11.70
2023-02-11T15:37:06.739Z,11.70
2023-02-11T15:42:23.271Z,11.80
2023-02-11T15:47:29.518Z,11.60
2023-02-11T15:52:31.668Z,11.70
2023-02-11T15:57:33.736Z,11.60
2023-02-11T16:02:38.576Z,11.60
2023-02-11T16:07:40.588Z,11.60
2023-02-11T16:12:50.316Z,11.60
2023-02-11T16:17:54.427Z,11.50
2023-02-11T16:22:56.492Z,11.80
2023-02-11T16:27:58.548Z,11.80
2023-02-11T16:33:00.657Z,11.50
2023-02-11T16:38:02.819Z,11.60
2023-02-11T16:43:04.942Z,11.50
2023-02-11T16:48:08.296Z,11.50
2023-02-11T16:53:10.353Z,11.50
2023-02-11T16:58:12.388Z,11.40
2023-02-11T17:03:16.793Z,11.50
2023-02-11T17:08:19.260Z,11.50
2023-02-11T17:13:21.244Z,11.40
2023-02-11T17:18:23.314Z,11.40
2023-02-11T17:23:25.316Z,11.40
2023-02-11T17:28:27.389Z,11.30
2023-02-11T17:33:29.488Z,11.40
2023-02-11T17:38:31.524Z,11.40
2023-02-11T17:43:33.537Z,11.30
2023-02-11T17:48:38.718Z,11.20
2023-02-11T17:53:40.721Z,11.20
2023-02-11T17:58:42.773Z,11.20
2023-02-11T18:03:44.852Z,11.10
2023-02-11T18:08:47.558Z,11.00
2023-02-11T18:13:54.128Z,11.20
2023-02-11T18:18:57.740Z,10.80
2023-02-11T18:24:05.811Z,10.90
2023-02-11T18:29:08.477Z,10.90
2023-02-11T18:34:11.035Z,10.90
2023-02-11T18:39:13.077Z,11.00
2023-02-11T18:44:21.013Z,10.80
2023-02-11T18:49:23.060Z,10.80
2023-02-11T18:54:25.117Z,10.70
2023-02-11T18:59:27.240Z,10.70
2023-02-11T19:04:29.306Z,10.70
2023-02-11T19:09:31.621Z,10.60
2023-02-11T19:14:34.288Z,10.70
2023-02-11T19:19:36.713Z,10.60
2023-02-11T19:24:38.815Z,10.50
2023-02-11T19:29:40.856Z,10.50
2023-02-11T19:34:43.015Z,10.60
2023-02-11T19:39:45.364Z,10.50
2023-02-11T19:44:47.424Z,10.50
2023-02-11T19:49:49.545Z,10.40
2023-02-11T19:54:51.670Z,10.50
2023-02-11T19:59:54.851Z,10.30
2023-02-11T20:04:57.351Z,10.50
2023-02-11T20:09:59.822Z,10.40
2023-02-11T20:15:01.764Z,10.30
2023-02-11T20:20:03.856Z,10.30
2023-02-11T20:25:06.136Z,10.30
2023-02-11T20:30:09.219Z,10.30
2023-02-11T20:35:11.305Z,10.40
2023-02-11T20:40:13.329Z,10.60
2023-02-11T20:45:15.380Z,10.50
2023-02-11T20:50:17.493Z,10.30
2023-02-11T20:55:19.499Z,10.40
2023-02-11T21:00:21.589Z,10.30
2023-02-11T21:05:23.609Z,10.40
2023-02-11T21:10:25.775Z,10.40
2023-02-11T21:15:27.993Z,10.30
2023-02-11T21:20:30.004Z,10.30
2023-02-11T21:25:31.979Z,10.50
2023-02-11T21:30:35.061Z,10.40
2023-02-11T21:35:37.878Z,10.30
2023-02-11T21:40:40.089Z,10.20
2023-02-11T21:45:43.834Z,10.20
2023-02-11T21:50:46.666Z,10.30
2023-02-11T21:55:51.181Z,10.10
2023-02-11T22:00:53.174Z,10.00
2023-02-11T22:05:55.457Z,10.00
2023-02-11T22:16:00.745Z,9.90
2023-02-11T22:21:11.263Z,10.00
2023-02-11T22:26:23.737Z,9.90
2023-02-11T22:31:27.460Z,10.00
2023-02-11T22:36:37.390Z,9.90
2023-02-11T22:41:43.681Z,10.40
2023-02-11T22:46:45.906Z,9.80
2023-02-11T22:51:47.980Z,10.20
2023-02-11T22:56:50.671Z,9.80
2023-02-11T23:01:52.813Z,9.60
2023-02-11T23:06:54.991Z,9.70
2023-02-11T23:11:57.776Z,9.70
2023-02-11T23:16:59.822Z,9.70
2023-02-11T23:22:03.384Z,9.70
2023-02-11T23:27:05.409Z,9.80
2023-02-11T23:32:07.474Z,9.70
2023-02-11T23:37:09.534Z,9.90
2023-02-11T23:42:11.962Z,9.70
2023-02-11T23:47:14.022Z,9.70
2023-02-11T23:52:16.169Z,9.80
2023-02-11T23:57:18.427Z,9.80
